sensor_id;sensor_type;location;lat;lon;timestamp;P1;durP1;ratioP1;P2;durP2;ratioP2
74644;SDS011;63163;55.630;37.594;2024-03-02T00:00:28;39.299999;;;23.200001;;
74644;SDS011;63163;55.630;37.594;2024-03-02T00:01:28;38.799999;;;23.400000;;
74644;SDS011;63163;55.630;37.594;2024-03-02T00:02:29;37.299999;;;22.900000;;
74644;SDS011;63163;55.630;37.594;2024-03-02T00:03:29;37.599998;;;23.200001;;
74644;SDS011;63163;55.630;37.594;2024-03-02T00:04:30;38.299999;;;22.900000;;
74644;SDS011;63163;55.630;37.594;2024-03-02T00:05:30;36.000000;;;22.700001;;
74644;SDS011;63163;55.630;37.594;2024-03-02T00:06:31;35.299999;;;21.900000;;
74644;SDS011;63163;55.630;37.594;2024-03-02T00:07:32;40.900002;;;24.200001;;
74644;SDS011;63163;55.630;37.594;2024-03-02T00:08:33;39.700001;;;23.299999;;
74644;SDS011;63163;55.630;37.594;2024-03-02T00:09:33;39.599998;;;23.500000;;
74644;SDS011;63163;55.630;37.594;2024-03-02T00:10:36;41.599998;;;24.799999;;
74644;SDS011;63163;55.630;37.594;2024-03-02T00:11:39;42.599998;;;23.900000;;
74644;SDS011;63163;55.630;37.594;2024-03-02T00:12:40;37.700001;;;22.700001;;
74644;SDS011;63163;55.630;37.594;2024-03-02T00:13:42;41.700001;;;23.900000;;
74644;SDS011;63163;55.630;37.594;2024-03-02T00:14:42;37.599998;;;23.200001;;
74644;SDS011;63163;55.630;37.594;2024-03-02T00:15:45;43.500000;;;24.400000;;
74644;SDS011;63163;55.630;37.594;2024-03-02T00:16:46;43.299999;;;24.299999;;
74644;SDS011;63163;55.630;37.594;2024-03-02T00:17:47;36.599998;;;22.200001;;
74644;SDS011;63163;55.630;37.594;2024-03-02T00:18:47;38.799999;;;23.500000;;
74644;SDS011;63163;55.630;37.594;2024-03-02T00:19:48;38.900002;;;23.900000;;
74644;SDS011;63163;55.630;37.594;2024-03-02T00:20:49;34.299999;;;22.299999;;
74644;SDS011;63163;55.630;37.594;2024-03-02T00:21:52;36.700001;;;22.799999;;
74644;SDS011;63163;55.630;37.594;2024-03-02T00:22:53;35.000000;;;20.299999;;
74644;SDS011;63163;55.630;37.594;2024-03-02T00:23:59;34.000000;;;21.700001;;
74644;SDS011;63163;55.630;37.594;2024-03-02T00:25:00;30.799999;;;19.900000;;
74644;SDS011;63163;55.630;37.594;2024-03-02T00:26:01;30.400000;;;19.100000;;
74644;SDS011;63163;55.630;37.594;2024-03-02T00:27:01;36.000000;;;21.299999;;
74644;SDS011;63163;55.630;37.594;2024-03-02T00:28:04;32.900002;;;19.299999;;
74644;SDS011;63163;55.630;37.594;2024-03-02T00:29:07;34.900002;;;20.799999;;
74644;SDS011;63163;55.630;37.594;2024-03-02T00:30:26;38.400002;;;25.299999;;
74644;SDS011;63163;55.630;37.594;2024-03-02T00:31:37;37.099998;;;22.400000;;
74644;SDS011;63163;55.630;37.594;2024-03-02T00:32:39;38.799999;;;22.600000;;
74644;SDS011;63163;55.630;37.594;2024-03-02T00:33:43;33.500000;;;21.799999;;
74644;SDS011;63163;55.630;37.594;2024-03-02T00:34:44;42.900002;;;22.900000;;
74644;SDS011;63163;55.630;37.594;2024-03-02T00:35:44;38.400002;;;23.000000;;
74644;SDS011;63163;55.630;37.594;2024-03-02T00:36:45;35.200001;;;22.500000;;
74644;SDS011;63163;55.630;37.594;2024-03-02T00:37:46;39.299999;;;22.900000;;
74644;SDS011;63163;55.630;37.594;2024-03-02T00:38:47;36.099998;;;21.600000;;
74644;SDS011;63163;55.630;37.594;2024-03-02T00:39:48;39.099998;;;21.500000;;
74644;SDS011;63163;55.630;37.594;2024-03-02T00:40:49;37.700001;;;21.900000;;
74644;SDS011;63163;55.630;37.594;2024-03-02T00:41:50;36.000000;;;21.700001;;
74644;SDS011;63163;55.630;37.594;2024-03-02T00:42:50;36.200001;;;21.900000;;
74644;SDS011;63163;55.630;37.594;2024-03-02T00:43:57;35.900002;;;22.100000;;
74644;SDS011;63163;55.630;37.594;2024-03-02T00:44:57;39.099998;;;22.500000;;
74644;SDS011;63163;55.630;37.594;2024-03-02T00:45:58;39.200001;;;23.900000;;
74644;SDS011;63163;55.630;37.594;2024-03-02T00:46:58;39.400002;;;22.600000;;
74644;SDS011;63163;55.630;37.594;2024-03-02T00:48:00;38.400002;;;23.600000;;
74644;SDS011;63163;55.630;37.594;2024-03-02T00:49:01;35.000000;;;22.700001;;
74644;SDS011;63163;55.630;37.594;2024-03-02T00:50:02;38.599998;;;23.400000;;
74644;SDS011;63163;55.630;37.594;2024-03-02T00:51:04;42.700001;;;24.700001;;
74644;SDS011;63163;55.630;37.594;2024-03-02T00:52:04;39.200001;;;24.299999;;
74644;SDS011;63163;55.630;37.594;2024-03-02T00:53:08;40.099998;;;23.900000;;
74644;SDS011;63163;55.630;37.594;2024-03-02T00:54:10;43.299999;;;23.900000;;
74644;SDS011;63163;55.630;37.594;2024-03-02T00:55:11;35.799999;;;23.100000;;
74644;SDS011;63163;55.630;37.594;2024-03-02T00:56:12;35.500000;;;21.400000;;
74644;SDS011;63163;55.630;37.594;2024-03-02T00:57:12;37.299999;;;22.200001;;
74644;SDS011;63163;55.630;37.594;2024-03-02T00:58:13;38.200001;;;22.400000;;
74644;SDS011;63163;55.630;37.594;2024-03-02T00:59:14;37.000000;;;24.600000;;
74644;SDS011;63163;55.630;37.594;2024-03-02T01:00:15;41.400002;;;24.799999;;
74644;SDS011;63163;55.630;37.594;2024-03-02T01:01:18;38.500000;;;24.400000;;
74644;SDS011;63163;55.630;37.594;2024-03-02T01:02:20;45.799999;;;25.400000;;
74644;SDS011;63163;55.630;37.594;2024-03-02T01:03:20;36.599998;;;22.200001;;
74644;SDS011;63163;55.630;37.594;2024-03-02T01:04:21;40.799999;;;22.799999;;
74644;SDS011;63163;55.630;37.594;2024-03-02T01:05:21;37.799999;;;22.500000;;
74644;SDS011;63163;55.630;37.594;2024-03-02T01:06:22;37.099998;;;21.500000;;
74644;SDS011;63163;55.630;37.594;2024-03-02T01:07:22;35.799999;;;20.700001;;
74644;SDS011;63163;55.630;37.594;2024-03-02T01:08:23;37.599998;;;20.799999;;
74644;SDS011;63163;55.630;37.594;2024-03-02T01:09:24;36.099998;;;20.200001;;
74644;SDS011;63163;55.630;37.594;2024-03-02T01:10:25;34.200001;;;21.100000;;
74644;SDS011;63163;55.630;37.594;2024-03-02T01:11:26;36.099998;;;20.200001;;
74644;SDS011;63163;55.630;37.594;2024-03-02T01:12:26;33.299999;;;21.600000;;
74644;SDS011;63163;55.630;37.594;2024-03-02T01:13:27;36.000000;;;21.799999;;
74644;SDS011;63163;55.630;37.594;2024-03-02T01:14:27;42.400002;;;21.100000;;
74644;SDS011;63163;55.630;37.594;2024-03-02T01:15:28;36.500000;;;22.900000;;
74644;SDS011;63163;55.630;37.594;2024-03-02T01:16:29;35.200001;;;21.799999;;
74644;SDS011;63163;55.630;37.594;2024-03-02T01:17:30;41.099998;;;23.900000;;
74644;SDS011;63163;55.630;37.594;2024-03-02T01:18:30;37.799999;;;23.400000;;
74644;SDS011;63163;55.630;37.594;2024-03-02T01:19:31;41.400002;;;23.600000;;
74644;SDS011;63163;55.630;37.594;2024-03-02T01:20:31;39.099998;;;23.700001;;
74644;SDS011;63163;55.630;37.594;2024-03-02T01:21:32;36.299999;;;22.500000;;
74644;SDS011;63163;55.630;37.594;2024-03-02T01:22:33;39.900002;;;24.299999;;
74644;SDS011;63163;55.630;37.594;2024-03-02T01:23:33;38.799999;;;22.600000;;
74644;SDS011;63163;55.630;37.594;2024-03-02T01:24:34;42.400002;;;23.600000;;
74644;SDS011;63163;55.630;37.594;2024-03-02T01:25:34;36.799999;;;22.900000;;
74644;SDS011;63163;55.630;37.594;2024-03-02T01:26:35;42.599998;;;23.600000;;
74644;SDS011;63163;55.630;37.594;2024-03-02T01:27:36;34.599998;;;21.400000;;
74644;SDS011;63163;55.630;37.594;2024-03-02T01:28:36;39.500000;;;22.700001;;
74644;SDS011;63163;55.630;37.594;2024-03-02T01:29:37;35.200001;;;21.799999;;
74644;SDS011;63163;55.630;37.594;2024-03-02T01:30:37;33.599998;;;20.000000;;
74644;SDS011;63163;55.630;37.594;2024-03-02T01:31:38;36.299999;;;20.600000;;
74644;SDS011;63163;55.630;37.594;2024-03-02T01:32:42;38.000000;;;21.900000;;
74644;SDS011;63163;55.630;37.594;2024-03-02T01:33:43;37.900002;;;21.700001;;
74644;SDS011;63163;55.630;37.594;2024-03-02T01:34:43;36.799999;;;22.100000;;
74644;SDS011;63163;55.630;37.594;2024-03-02T01:35:44;41.599998;;;22.799999;;
74644;SDS011;63163;55.630;37.594;2024-03-02T01:36:44;40.099998;;;22.799999;;
74644;SDS011;63163;55.630;37.594;2024-03-02T01:37:45;43.299999;;;23.900000;;
74644;SDS011;63163;55.630;37.594;2024-03-02T01:38:45;39.200001;;;22.799999;;
74644;SDS011;63163;55.630;37.594;2024-03-02T01:39:46;37.299999;;;21.400000;;
74644;SDS011;63163;55.630;37.594;2024-03-02T01:40:47;34.700001;;;21.299999;;
74644;SDS011;63163;55.630;37.594;2024-03-02T01:41:47;37.799999;;;22.700001;;
74644;SDS011;63163;55.630;37.594;2024-03-02T01:42:48;36.900002;;;22.799999;;
74644;SDS011;63163;55.630;37.594;2024-03-02T01:43:48;39.700001;;;24.799999;;
74644;SDS011;63163;55.630;37.594;2024-03-02T01:44:48;38.799999;;;23.600000;;
74644;SDS011;63163;55.630;37.594;2024-03-02T01:45:49;40.099998;;;24.600000;;
74644;SDS011;63163;55.630;37.594;2024-03-02T01:46:50;37.500000;;;22.600000;;
74644;SDS011;63163;55.630;37.594;2024-03-02T01:47:51;40.400002;;;23.200001;;
74644;SDS011;63163;55.630;37.594;2024-03-02T01:48:51;41.200001;;;23.400000;;
74644;SDS011;63163;55.630;37.594;2024-03-02T01:49:52;38.799999;;;22.900000;;
74644;SDS011;63163;55.630;37.594;2024-03-02T01:50:52;39.500000;;;23.900000;;
74644;SDS011;63163;55.630;37.594;2024-03-02T01:51:53;41.700001;;;22.799999;;
74644;SDS011;63163;55.630;37.594;2024-03-02T01:52:54;35.400002;;;21.700001;;
74644;SDS011;63163;55.630;37.594;2024-03-02T01:53:54;36.200001;;;23.600000;;
74644;SDS011;63163;55.630;37.594;2024-03-02T01:54:55;37.599998;;;22.900000;;
74644;SDS011;63163;55.630;37.594;2024-03-02T01:55:56;36.799999;;;21.700001;;
74644;SDS011;63163;55.630;37.594;2024-03-02T01:56:56;38.000000;;;21.500000;;
74644;SDS011;63163;55.630;37.594;2024-03-02T01:57:57;39.400002;;;23.700001;;
74644;SDS011;63163;55.630;37.594;2024-03-02T01:58:58;38.099998;;;21.500000;;
74644;SDS011;63163;55.630;37.594;2024-03-02T01:59:58;41.299999;;;22.299999;;
74644;SDS011;63163;55.630;37.594;2024-03-02T02:00:59;39.200001;;;23.600000;;
74644;SDS011;63163;55.630;37.594;2024-03-02T02:02:00;36.400002;;;22.600000;;
74644;SDS011;63163;55.630;37.594;2024-03-02T02:03:01;36.900002;;;23.500000;;
74644;SDS011;63163;55.630;37.594;2024-03-02T02:04:02;37.900002;;;23.600000;;
74644;SDS011;63163;55.630;37.594;2024-03-02T02:05:02;38.500000;;;22.200001;;
74644;SDS011;63163;55.630;37.594;2024-03-02T02:06:03;42.599998;;;23.500000;;
74644;SDS011;63163;55.630;37.594;2024-03-02T02:07:04;37.799999;;;21.900000;;
74644;SDS011;63163;55.630;37.594;2024-03-02T02:08:05;36.000000;;;21.700001;;
74644;SDS011;63163;55.630;37.594;2024-03-02T02:09:05;36.099998;;;22.799999;;
74644;SDS011;63163;55.630;37.594;2024-03-02T02:10:08;40.000000;;;22.299999;;
74644;SDS011;63163;55.630;37.594;2024-03-02T02:11:09;35.000000;;;23.500000;;
74644;SDS011;63163;55.630;37.594;2024-03-02T02:12:10;37.000000;;;23.500000;;
74644;SDS011;63163;55.630;37.594;2024-03-02T02:13:10;37.500000;;;24.000000;;
74644;SDS011;63163;55.630;37.594;2024-03-02T02:14:11;42.099998;;;25.100000;;
74644;SDS011;63163;55.630;37.594;2024-03-02T02:15:27;41.000000;;;23.700001;;
74644;SDS011;63163;55.630;37.594;2024-03-02T02:16:28;38.200001;;;22.200001;;
74644;SDS011;63163;55.630;37.594;2024-03-02T02:17:28;38.099998;;;21.400000;;
74644;SDS011;63163;55.630;37.594;2024-03-02T02:18:29;37.200001;;;21.700001;;
74644;SDS011;63163;55.630;37.594;2024-03-02T02:19:29;37.500000;;;22.900000;;
74644;SDS011;63163;55.630;37.594;2024-03-02T02:20:30;34.900002;;;21.299999;;
74644;SDS011;63163;55.630;37.594;2024-03-02T02:21:30;39.099998;;;22.700001;;
74644;SDS011;63163;55.630;37.594;2024-03-02T02:22:31;41.599998;;;23.100000;;
74644;SDS011;63163;55.630;37.594;2024-03-02T02:23:31;39.500000;;;23.000000;;
74644;SDS011;63163;55.630;37.594;2024-03-02T02:24:31;40.599998;;;23.900000;;
74644;SDS011;63163;55.630;37.594;2024-03-02T02:25:32;40.700001;;;21.700001;;
74644;SDS011;63163;55.630;37.594;2024-03-02T02:26:32;39.400002;;;23.000000;;
74644;SDS011;63163;55.630;37.594;2024-03-02T02:27:33;38.599998;;;22.100000;;
74644;SDS011;63163;55.630;37.594;2024-03-02T02:28:34;37.299999;;;21.700001;;
74644;SDS011;63163;55.630;37.594;2024-03-02T02:29:34;41.299999;;;24.299999;;
74644;SDS011;63163;55.630;37.594;2024-03-02T02:30:35;38.599998;;;22.400000;;
74644;SDS011;63163;55.630;37.594;2024-03-02T02:31:37;36.599998;;;23.299999;;
74644;SDS011;63163;55.630;37.594;2024-03-02T02:32:38;34.599998;;;22.100000;;
74644;SDS011;63163;55.630;37.594;2024-03-02T02:33:38;36.700001;;;22.400000;;
74644;SDS011;63163;55.630;37.594;2024-03-02T02:34:39;40.400002;;;22.100000;;
74644;SDS011;63163;55.630;37.594;2024-03-02T02:35:39;39.099998;;;22.400000;;
74644;SDS011;63163;55.630;37.594;2024-03-02T02:36:40;36.400002;;;22.000000;;
74644;SDS011;63163;55.630;37.594;2024-03-02T02:37:41;36.900002;;;22.000000;;
74644;SDS011;63163;55.630;37.594;2024-03-02T02:38:43;35.500000;;;23.299999;;
74644;SDS011;63163;55.630;37.594;2024-03-02T02:39:44;37.500000;;;22.600000;;
74644;SDS011;63163;55.630;37.594;2024-03-02T02:40:46;35.500000;;;21.900000;;
74644;SDS011;63163;55.630;37.594;2024-03-02T02:41:47;38.000000;;;22.000000;;
74644;SDS011;63163;55.630;37.594;2024-03-02T02:42:48;37.099998;;;22.799999;;
74644;SDS011;63163;55.630;37.594;2024-03-02T02:43:48;41.000000;;;23.500000;;
74644;SDS011;63163;55.630;37.594;2024-03-02T02:44:49;38.900002;;;23.799999;;
74644;SDS011;63163;55.630;37.594;2024-03-02T02:45:49;38.400002;;;21.200001;;
74644;SDS011;63163;55.630;37.594;2024-03-02T02:46:50;40.299999;;;23.799999;;
74644;SDS011;63163;55.630;37.594;2024-03-02T02:47:50;37.599998;;;22.100000;;
74644;SDS011;63163;55.630;37.594;2024-03-02T02:48:51;38.000000;;;22.500000;;
74644;SDS011;63163;55.630;37.594;2024-03-02T02:49:53;43.500000;;;25.500000;;
74644;SDS011;63163;55.630;37.594;2024-03-02T02:50:54;41.299999;;;24.100000;;
74644;SDS011;63163;55.630;37.594;2024-03-02T02:51:54;36.599998;;;22.600000;;
74644;SDS011;63163;55.630;37.594;2024-03-02T02:52:55;36.500000;;;22.299999;;
74644;SDS011;63163;55.630;37.594;2024-03-02T02:53:55;37.700001;;;22.299999;;
74644;SDS011;63163;55.630;37.594;2024-03-02T02:54:56;35.700001;;;21.400000;;
74644;SDS011;63163;55.630;37.594;2024-03-02T02:55:56;39.200001;;;21.799999;;
74644;SDS011;63163;55.630;37.594;2024-03-02T02:56:56;34.000000;;;20.400000;;
74644;SDS011;63163;55.630;37.594;2024-03-02T02:57:57;35.000000;;;21.299999;;
74644;SDS011;63163;55.630;37.594;2024-03-02T02:58:58;37.700001;;;22.100000;;
74644;SDS011;63163;55.630;37.594;2024-03-02T02:59:58;33.900002;;;19.400000;;
74644;SDS011;63163;55.630;37.594;2024-03-02T03:00:59;37.200001;;;22.400000;;
74644;SDS011;63163;55.630;37.594;2024-03-02T03:01:59;37.700001;;;22.799999;;
74644;SDS011;63163;55.630;37.594;2024-03-02T03:03:00;38.799999;;;23.900000;;
74644;SDS011;63163;55.630;37.594;2024-03-02T03:04:00;40.099998;;;24.200001;;
74644;SDS011;63163;55.630;37.594;2024-03-02T03:05:01;36.599998;;;22.100000;;
74644;SDS011;63163;55.630;37.594;2024-03-02T03:06:01;38.299999;;;22.900000;;
74644;SDS011;63163;55.630;37.594;2024-03-02T03:07:02;35.099998;;;22.500000;;
74644;SDS011;63163;55.630;37.594;2024-03-02T03:08:03;35.400002;;;21.299999;;
74644;SDS011;63163;55.630;37.594;2024-03-02T03:09:03;40.599998;;;22.799999;;
74644;SDS011;63163;55.630;37.594;2024-03-02T03:10:04;35.700001;;;21.400000;;
74644;SDS011;63163;55.630;37.594;2024-03-02T03:11:06;38.000000;;;20.200001;;
74644;SDS011;63163;55.630;37.594;2024-03-02T03:12:07;37.400002;;;21.900000;;
74644;SDS011;63163;55.630;37.594;2024-03-02T03:13:08;38.200001;;;20.799999;;
74644;SDS011;63163;55.630;37.594;2024-03-02T03:14:09;36.799999;;;20.400000;;
74644;SDS011;63163;55.630;37.594;2024-03-02T03:15:09;34.500000;;;20.799999;;
74644;SDS011;63163;55.630;37.594;2024-03-02T03:16:10;35.700001;;;20.700001;;
74644;SDS011;63163;55.630;37.594;2024-03-02T03:17:11;34.400002;;;21.000000;;
74644;SDS011;63163;55.630;37.594;2024-03-02T03:18:11;34.700001;;;20.900000;;
74644;SDS011;63163;55.630;37.594;2024-03-02T03:19:12;36.900002;;;20.799999;;
74644;SDS011;63163;55.630;37.594;2024-03-02T03:20:12;35.299999;;;20.799999;;
74644;SDS011;63163;55.630;37.594;2024-03-02T03:21:13;35.099998;;;19.400000;;
74644;SDS011;63163;55.630;37.594;2024-03-02T03:22:13;35.599998;;;23.400000;;
74644;SDS011;63163;55.630;37.594;2024-03-02T03:23:14;39.700001;;;23.400000;;
74644;SDS011;63163;55.630;37.594;2024-03-02T03:24:16;38.099998;;;21.700001;;
74644;SDS011;63163;55.630;37.594;2024-03-02T03:25:16;42.299999;;;23.900000;;
74644;SDS011;63163;55.630;37.594;2024-03-02T03:26:17;38.900002;;;22.500000;;
74644;SDS011;63163;55.630;37.594;2024-03-02T03:27:17;35.000000;;;23.400000;;
74644;SDS011;63163;55.630;37.594;2024-03-02T03:28:18;37.000000;;;20.700001;;
74644;SDS011;63163;55.630;37.594;2024-03-02T03:29:18;35.400002;;;20.799999;;
74644;SDS011;63163;55.630;37.594;2024-03-02T03:30:19;37.700001;;;21.400000;;
74644;SDS011;63163;55.630;37.594;2024-03-02T03:31:19;39.500000;;;22.500000;;
74644;SDS011;63163;55.630;37.594;2024-03-02T03:32:20;41.599998;;;22.600000;;
74644;SDS011;63163;55.630;37.594;2024-03-02T03:33:20;38.200001;;;23.500000;;
74644;SDS011;63163;55.630;37.594;2024-03-02T03:34:21;36.700001;;;22.000000;;
74644;SDS011;63163;55.630;37.594;2024-03-02T03:35:21;36.000000;;;20.200001;;
74644;SDS011;63163;55.630;37.594;2024-03-02T03:36:23;33.900002;;;19.600000;;
74644;SDS011;63163;55.630;37.594;2024-03-02T03:37:23;39.400002;;;22.000000;;
74644;SDS011;63163;55.630;37.594;2024-03-02T03:38:26;32.599998;;;19.700001;;
74644;SDS011;63163;55.630;37.594;2024-03-02T03:39:26;34.400002;;;21.700001;;
74644;SDS011;63163;55.630;37.594;2024-03-02T03:40:26;34.900002;;;20.000000;;
74644;SDS011;63163;55.630;37.594;2024-03-02T03:41:27;35.500000;;;20.900000;;
74644;SDS011;63163;55.630;37.594;2024-03-02T03:42:28;41.799999;;;23.700001;;
74644;SDS011;63163;55.630;37.594;2024-03-02T03:43:28;40.299999;;;24.200001;;
74644;SDS011;63163;55.630;37.594;2024-03-02T03:44:29;41.700001;;;23.900000;;
74644;SDS011;63163;55.630;37.594;2024-03-02T03:45:30;42.700001;;;24.900000;;
74644;SDS011;63163;55.630;37.594;2024-03-02T03:46:30;42.900002;;;25.200001;;
74644;SDS011;63163;55.630;37.594;2024-03-02T03:47:31;44.200001;;;24.700001;;
74644;SDS011;63163;55.630;37.594;2024-03-02T03:48:31;42.900002;;;25.200001;;
74644;SDS011;63163;55.630;37.594;2024-03-02T03:49:32;43.000000;;;25.100000;;
74644;SDS011;63163;55.630;37.594;2024-03-02T03:50:32;40.200001;;;24.700001;;
74644;SDS011;63163;55.630;37.594;2024-03-02T03:51:33;43.000000;;;24.200001;;
74644;SDS011;63163;55.630;37.594;2024-03-02T03:52:33;45.400002;;;24.700001;;
74644;SDS011;63163;55.630;37.594;2024-03-02T03:53:34;42.400002;;;27.000000;;
74644;SDS011;63163;55.630;37.594;2024-03-02T03:54:34;41.700001;;;24.799999;;
74644;SDS011;63163;55.630;37.594;2024-03-02T03:55:37;43.900002;;;25.500000;;
74644;SDS011;63163;55.630;37.594;2024-03-02T03:56:38;41.400002;;;24.000000;;
74644;SDS011;63163;55.630;37.594;2024-03-02T03:57:38;38.000000;;;23.000000;;
74644;SDS011;63163;55.630;37.594;2024-03-02T03:58:38;41.900002;;;24.299999;;
74644;SDS011;63163;55.630;37.594;2024-03-02T03:59:39;42.700001;;;26.299999;;
74644;SDS011;63163;55.630;37.594;2024-03-02T04:00:40;39.799999;;;23.700001;;
74644;SDS011;63163;55.630;37.594;2024-03-02T04:01:40;37.299999;;;21.900000;;
74644;SDS011;63163;55.630;37.594;2024-03-02T04:02:40;37.299999;;;21.600000;;
74644;SDS011;63163;55.630;37.594;2024-03-02T04:03:41;40.700001;;;21.200001;;
74644;SDS011;63163;55.630;37.594;2024-03-02T04:04:41;36.099998;;;21.299999;;
74644;SDS011;63163;55.630;37.594;2024-03-02T04:05:42;35.799999;;;21.000000;;
74644;SDS011;63163;55.630;37.594;2024-03-02T04:06:42;33.799999;;;21.900000;;
74644;SDS011;63163;55.630;37.594;2024-03-02T04:07:43;32.599998;;;20.100000;;
74644;SDS011;63163;55.630;37.594;2024-03-02T04:08:44;40.099998;;;22.600000;;
74644;SDS011;63163;55.630;37.594;2024-03-02T04:09:44;37.099998;;;22.000000;;
74644;SDS011;63163;55.630;37.594;2024-03-02T04:10:44;41.799999;;;24.200001;;
74644;SDS011;63163;55.630;37.594;2024-03-02T04:11:45;44.599998;;;24.600000;;
74644;SDS011;63163;55.630;37.594;2024-03-02T04:12:46;40.200001;;;23.000000;;
74644;SDS011;63163;55.630;37.594;2024-03-02T04:13:46;38.500000;;;23.500000;;
74644;SDS011;63163;55.630;37.594;2024-03-02T04:14:47;41.700001;;;22.900000;;
74644;SDS011;63163;55.630;37.594;2024-03-02T04:15:47;38.700001;;;24.200001;;
74644;SDS011;63163;55.630;37.594;2024-03-02T04:16:48;37.400002;;;22.600000;;
74644;SDS011;63163;55.630;37.594;2024-03-02T04:17:48;36.400002;;;21.700001;;
74644;SDS011;63163;55.630;37.594;2024-03-02T04:18:49;41.299999;;;22.900000;;
74644;SDS011;63163;55.630;37.594;2024-03-02T04:19:50;38.599998;;;23.799999;;
74644;SDS011;63163;55.630;37.594;2024-03-02T04:20:50;44.200001;;;24.900000;;
74644;SDS011;63163;55.630;37.594;2024-03-02T04:21:51;40.400002;;;25.500000;;
74644;SDS011;63163;55.630;37.594;2024-03-02T04:22:51;43.900002;;;25.000000;;
74644;SDS011;63163;55.630;37.594;2024-03-02T04:23:52;41.900002;;;25.400000;;
74644;SDS011;63163;55.630;37.594;2024-03-02T04:24:53;41.099998;;;24.200001;;
74644;SDS011;63163;55.630;37.594;2024-03-02T04:25:53;39.099998;;;23.400000;;
74644;SDS011;63163;55.630;37.594;2024-03-02T04:26:54;42.400002;;;22.799999;;
74644;SDS011;63163;55.630;37.594;2024-03-02T04:27:54;40.400002;;;24.500000;;
74644;SDS011;63163;55.630;37.594;2024-03-02T04:28:55;41.900002;;;24.000000;;
74644;SDS011;63163;55.630;37.594;2024-03-02T04:29:55;37.799999;;;23.799999;;
74644;SDS011;63163;55.630;37.594;2024-03-02T04:30:56;42.200001;;;23.900000;;
74644;SDS011;63163;55.630;37.594;2024-03-02T04:31:56;41.799999;;;24.400000;;
74644;SDS011;63163;55.630;37.594;2024-03-02T04:32:57;44.200001;;;26.900000;;
74644;SDS011;63163;55.630;37.594;2024-03-02T04:33:58;45.099998;;;25.500000;;
74644;SDS011;63163;55.630;37.594;2024-03-02T04:34:58;43.000000;;;25.200001;;
74644;SDS011;63163;55.630;37.594;2024-03-02T04:35:59;40.099998;;;24.100000;;
74644;SDS011;63163;55.630;37.594;2024-03-02T04:36:59;40.599998;;;24.500000;;
74644;SDS011;63163;55.630;37.594;2024-03-02T04:38:00;39.700001;;;24.299999;;
74644;SDS011;63163;55.630;37.594;2024-03-02T04:39:00;40.200001;;;24.500000;;
74644;SDS011;63163;55.630;37.594;2024-03-02T04:40:01;46.400002;;;27.200001;;
74644;SDS011;63163;55.630;37.594;2024-03-02T04:41:02;42.400002;;;25.000000;;
74644;SDS011;63163;55.630;37.594;2024-03-02T04:42:02;40.799999;;;23.799999;;
74644;SDS011;63163;55.630;37.594;2024-03-02T04:43:03;46.500000;;;25.600000;;
74644;SDS011;63163;55.630;37.594;2024-03-02T04:44:04;42.299999;;;25.400000;;
74644;SDS011;63163;55.630;37.594;2024-03-02T04:45:04;44.099998;;;26.799999;;
74644;SDS011;63163;55.630;37.594;2024-03-02T04:46:05;44.599998;;;26.100000;;
74644;SDS011;63163;55.630;37.594;2024-03-02T04:47:07;47.799999;;;26.200001;;
74644;SDS011;63163;55.630;37.594;2024-03-02T04:48:07;44.900002;;;25.600000;;
74644;SDS011;63163;55.630;37.594;2024-03-02T04:49:08;42.400002;;;24.900000;;
74644;SDS011;63163;55.630;37.594;2024-03-02T04:50:08;46.200001;;;26.500000;;
74644;SDS011;63163;55.630;37.594;2024-03-02T04:51:09;39.200001;;;23.200001;;
74644;SDS011;63163;55.630;37.594;2024-03-02T04:52:09;47.400002;;;25.600000;;
74644;SDS011;63163;55.630;37.594;2024-03-02T04:53:10;44.799999;;;24.299999;;
74644;SDS011;63163;55.630;37.594;2024-03-02T04:54:10;42.500000;;;25.000000;;
74644;SDS011;63163;55.630;37.594;2024-03-02T04:55:11;47.900002;;;26.500000;;
74644;SDS011;63163;55.630;37.594;2024-03-02T04:56:42;42.599998;;;25.900000;;
74644;SDS011;63163;55.630;37.594;2024-03-02T04:57:50;45.700001;;;26.700001;;
74644;SDS011;63163;55.630;37.594;2024-03-02T04:58:51;42.200001;;;26.600000;;
74644;SDS011;63163;55.630;37.594;2024-03-02T04:59:51;41.799999;;;25.600000;;
74644;SDS011;63163;55.630;37.594;2024-03-02T05:00:52;45.400002;;;27.700001;;
74644;SDS011;63163;55.630;37.594;2024-03-02T05:01:52;42.099998;;;27.799999;;
74644;SDS011;63163;55.630;37.594;2024-03-02T05:02:53;44.200001;;;26.900000;;
74644;SDS011;63163;55.630;37.594;2024-03-02T05:03:53;49.500000;;;26.500000;;
74644;SDS011;63163;55.630;37.594;2024-03-02T05:04:54;45.200001;;;28.299999;;
74644;SDS011;63163;55.630;37.594;2024-03-02T05:05:54;45.400002;;;27.799999;;
74644;SDS011;63163;55.630;37.594;2024-03-02T05:06:56;44.500000;;;26.700001;;
74644;SDS011;63163;55.630;37.594;2024-03-02T05:07:58;47.599998;;;27.200001;;
74644;SDS011;63163;55.630;37.594;2024-03-02T05:08:58;48.099998;;;28.400000;;
74644;SDS011;63163;55.630;37.594;2024-03-02T05:09:59;49.099998;;;29.100000;;
74644;SDS011;63163;55.630;37.594;2024-03-02T05:10:59;45.099998;;;27.000000;;
74644;SDS011;63163;55.630;37.594;2024-03-02T05:12:29;45.400002;;;28.100000;;
74644;SDS011;63163;55.630;37.594;2024-03-02T05:13:29;45.400002;;;27.500000;;
74644;SDS011;63163;55.630;37.594;2024-03-02T05:14:30;39.599998;;;24.400000;;
74644;SDS011;63163;55.630;37.594;2024-03-02T05:15:30;44.900002;;;25.799999;;